Villas del Faro, Puerto Rico
Current Conditions -  °F | °C
As of 12:06 PM on Thursday 30 Oct 2014 (Local Time) from TJNR Reporting Station
Overcast Overcast  
Wind Chill: 83°   Ceiling: 2900
Heat Index: 92°   Visibility: 10mi
Dew Point: 77°   Wind: 3mph
Humidity: 82%   Direction: 100°E
Pressure: 29.86"   Gusts: NA
Location:  18.0098°N, 65.8982°W
Report Text: TJNR 301606Z AUTO 10003KT 10SM BKN029 BKN035 OVC047 28/25 A2986 RMK AO2 RAE04 P0000 T02830250 $
Loading
Personal Weather Stations






























Interactive Weather Map New forecast layout! Learn more

10-Day Weather Forecast

Advertisements
Track Severe Weather on mobile